Pineview, Mississippi
Current Conditions -  °F | °C
As of 6:15 PM on Monday 24 Nov 2014 (Local Time) from KPIB Reporting Station
Clear Clear  
Wind Chill: 55°   Ceiling: Unl
Heat Index: 55°   Visibility: 10mi
Dew Point: 37°   Wind: 7mph
Humidity: 51%   Direction: 330°NNW
Pressure: 30"   Gusts: NA
Location:  31.6875°N, 89.1116°W
Report Text: KPIB 250015Z AUTO 33006KT 10SM CLR 13/03 A3000 RMK AO1
Loading
Personal Weather Stations






























Interactive Weather Map New forecast layout! Learn more

10-Day Weather Forecast

Advertisements
Track Severe Weather on mobile